Event Stats: Texas (MPO)

Last Updated: 2024-03-04 19:22:17

Shows events in the Statmando database that have been held in Texas and that include an MPO Division, capped at the most recent 1000 events.
Name EventEndDate Tour City FieldSize AvgRating TotalPurse EventRounds Winner WinnerEventRating WinnerCashPerThrow WinnerPrize
22nd Annual Crush on the Concho 2024-03-03 A San Angelo 35 972.4951 25,551 3 Bradley Williams 1039.6667 12.9527 1,917
Chainwreck Flex @ Zboaz V 2024-03-02 C Benbrook 12 938.7500 0 1 PDGA #165881 1013.0000 0.0000 0
Big Flicks McClain Flex Sponsored by DISCRAFT 2024-03-02 C San Antonio 3 928.0000 0 1 Cole Clark 942.0000 0.0000 0
Throwing Down the Gauntlet Platinum Tier at Research Park, Sponsored by MVP Disc Sports 2024-03-02 B Bryan 9 949.0000 2,604 2 Tanner McCartney 1017.0000 5.5729 535
Big Flicks Zube Flex League 1 2024-03-01 L Hockley 2 969.0000 0 1 Brian Felgere 983.0000 0
Fuego Friday Flex Start @ Sprinkle Valley - USWDGC Fundraiser Series #6 2024-03-01 C Austin 6 936.0000 0 1 Chris Harris 999.0000 0.0000 0
Friday Flex at The Hideaway 2024-03-01 C Terrell 3 962.0000 98 1 Raven Newsom 1032.0000 1.0164 62
Dynamic Discs Flex Start Friday @ Greenbelt #3 2024-03-01 C Carrollon 6 925.3333 46 1 Carlton Reynolds 979.0000 0.3800 19
Dynamic Discs Flex Start Friday @ Greenbelt #3 2024-03-01 C Carrollon 6 925.3333 46 1 PDGA #241662 979.0000 0.3800 19
Hideaway Flex at the Scorpion 2024-03-01 C Terrell 1 1024.0000 40 1 PDGA #115362 1024.0000 0.8333 40
Lone Star Disc Flex Thursday @ Eric Paddy 2024-02-29 C Tomball 2 926.0000 40 1 Chris Macias 926.0000 0.7273 40
Crush on the Concho Flex Start 2024-02-29 C San Angelo 1 18 1 Clayton Sheller 0.2727 18
Tako Truck Flex at North Concho sponsored by Lone Star Disc 2024-02-28 C San Angelo 2 953.5000 36 1 PDGA #144159 992.0000 0.6545 36
Arcadia Flex hosted by Ideal Discs 2024-02-25 C fort worth 19 943.5263 311 1 PDGA #165881 1025.0000 0.0000 0
Lucky Ace Double Down Doubles 2024-02-25 XC Cypress 1 991.0000 42 1 Marcus Stephens 991.0000 0.8936 42
Griplocked Sunday Flex @ Audubon 2/25/2023 2024-02-25 C Garland 3 944.0000 54 1 PDGA #107953 990.0000 0.6800 34
The G.C.D.G.C. presents the 41st Victoria Open - a H.O.T.T. Tour Qualifier powered by OneStar & Mint 2024-02-25 A Victoria 41 978.5294 17,490 3 Mason Marchbanks 1027.0000 7.9470 1,200
Throwing Love at BlackBerry Pines 2024-02-24 C Pittsburg 7 959.3571 672 2 Gregg Barsby 1015.5000 1.3197 161
The Disc Barn Flex Powered by Hooligan Discs 2024-02-24 C Rockwall 10 927.0000 180 1 PDGA #146689 1011.0000 1.4510 74
Throwing Down the Gauntlet at Nani Falcon, (SILVER) Sponsored by MVP Disc Sports 2024-02-24 C San Antonio 3 918.3333 63 1 PDGA #139751 946.0000 0.6610 39
Throwing Down the Gauntlet at Eric Paddy Memorial, (SILVER) Sponsored by MVP Disc Sports 2024-02-24 C Tomball 5 877.2000 105 1 Kyle Serres 948.0000 1.2453 66
Flex at Claiborne Park 2024-02-24 C Vidor 3 969.0000 0 1 PDGA #198873 969.0000 0.0000 0
Flex at Claiborne Park 2024-02-24 C Vidor 3 969.0000 0 1 PDGA #100611 969.0000 0.0000 0
Flex at Claiborne Park 2024-02-24 C Vidor 3 969.0000 0 1 Seth Windham 969.0000 0.0000 0
Big Country Flex 2024-02-24 C Belton 9 953.3333 252 1 PDGA #106702 993.0000 1.7049 104
Big Country Blues Flex 2024-02-24 C Belton 5 923.0000 90 1 Mason Carruth 973.0000 1.3023 56
6th Annual Swordstone Shiver 2024-02-24 C Spicewood 11 952.5000 946 2 Ian Fredrickson 1009.0000 1.6931 171
Throwing Down the Gauntlet at Founders Park, (SILVER) Sponsored by MVP Disc Sports 2024-02-23 C Dallas 2 929.0000 42 1 PDGA #55649 940.0000 0.7241 42
Fuego Friday Flex Start @ Live Oak Brewing - USWDGC Fundraiser Series #5 2024-02-23 C Del Valle 3 926.3333 60 1 Neil Myers 996.0000 0.8261 38
Dynamic Discs Flex Start Friday @ Greenbelt #2 2024-02-23 C Carrollton 16 946.3750 85 1 Alan Morrison 1021.0000 0.8936 42
Lone Star Disc Flex Thursday @ Indian Shores 2/22/24 2024-02-22 C Richmond 1 906.0000 0 1 Sheldon Jefferson 906.0000 0.0000 0
Sprinkle Valley Flex Start - 2/21/2024 2024-02-21 C Austin 1 956.0000 17 1 Austin North 956.0000 0.2537 17
Big country Presidents’ Day flex 2024-02-19 C Killeen 7 952.4286 126 1 PDGA #139567 989.0000 0.9836 60
Simply Discs' Sanctioned Flex Series #3 @Hewitt Park 2024-02-18 C Hewitt 8 909.2500 191 1 Ryan May 988.0000 1.6458 79
Flex Start at Mackenzie DGC Presented by Birdie Productions #1 2024-02-18 C Lubbock 8 948.7500 208 1 PDGA #150196 965.0000 1.2963 70
Flex Start at Mackenzie DGC Presented by Birdie Productions #1 2024-02-18 C Lubbock 8 948.7500 208 1 PDGA #237855 965.0000 1.2963 70
Flex start @ Joshua Springs 2024-02-18 C Comfort 8 968.7500 304 1 Austin North 1027.0000 2.4902 127
Yeti's Disc Golf Battle Royale-Corpus Christi Edition 2024-02-18 C Corpus Christi 4 958.7500 190 1 Jimmy Martinez 981.0000 0.7547 40
Yeti's Disc Golf Battle Royale-Corpus Christi Edition 2024-02-18 C Corpus Christi 4 958.7500 190 1 Waden Sides 981.0000 0.9434 50
Banging Birdies on Beaver 2024-02-18 C Cedar Hill 13 915.6154 365 1 PDGA #46238 971.0000 2.1429 120
Chainwreck One Round challenge @ Gateway stop2 2024-02-17 C Fort Worth 13 939.9231 306 1 PDGA #44313 1044.0000 2.3830 112
FLEX @Westside Park 2024-02-17 C Marble Falls 2 922.0000 50 1 PDGA #197361 938.0000 0.9091 50
Throwing Down the Gauntlet at Crossroads, (SILVER) Sponsored by MVP Disc Sports 2024-02-17 C Temple 4 973.0000 80 1 PDGA #110344 995.0000 0.8333 50
Livin' the Dream at Ingleside Powered by Millenium 2024-02-17 B Ingleside 9 967.4444 2,786 2 Charlie Moore 1017.5000 4.4688 572
LowPutt Disc Golf Presents Rocky Hills Winter Classic 2024-02-17 C Ovalo 8 972.9375 816 2 Nicholas Rowton 997.0000 1.5273 168
Devil's at Dino 2024-02-17 C Walnut Springs 2 921.7500 532 2 PDGA #139567 938.5000 2.0781 266
Big Flicks UC/McClain League 2024-02-17 L San Antonio 15 932.5238 0 5 Kevin Pfullmann 990.0000 0
Battle of the Rings 2024 Presented By Innova Disc Golf #2 2024-02-17 C houston 1 954.5000 90 2 PDGA #189000 954.5000 0.3409 45
Fuego Friday Flex Start @ OSP - USWDGC Fundraiser Series #4 2024-02-16 C Round Rock 12 952.5833 240 1 Chris Harris 993.0000 1.3273 73
Fuego Friday Flex Start @ OSP - USWDGC Fundraiser Series #4 2024-02-16 C Round Rock 12 952.5833 240 1 PDGA #213243 993.0000 1.3273 73
Dynamic Discs Flex Start Friday @ Jimmy Porter #2 2024-02-16 C Carrollton 17 944.7059 106 1 Emerson Keith 1039.0000 1.0870 50
Lone Star Disc Flex Thursday @ McDade 2024-02-15 C Conroe 3 999.0000 60 1 Charlie Moore 1061.0000 0.8837 38
SV Flex Tuesday 2023-24 Winter League 2024-02-13 L Spring 11 925.9333 0 8 Charlie Moore 1014.2500 0
Brazos Valley League 2024-02-11 L College Station 12 917.1379 0 6 PDGA #225195 924.0000 0
2024 MetCenter Flex #1 - Presented by 1010 Discs 2024-02-11 C Austin 3 960.0000 96 1 PDGA #110344 1011.0000 0.8955 60
Hypernova Series 2 @ Boerne City Lake 2024-02-11 C Boerne 6 936.1667 210 1 Michael Herrera 1002.0000 1.8519 100
Frostbite Open V @ North Park Disc Golf Course 2024-02-10 C haltom city 5 956.8000 115 1 Alan Morrison 1001.0000 1.4400 72
Flex Start at Roy G 2024-02-10 C Austin 3 943.6667 76 1 Chris Harris 992.0000 0.6129 38
Flex Start at Roy G 2024-02-10 C Austin 3 943.6667 76 1 Thomas Perks 992.0000 0.6129 38
5th Annual Coastal Clash presented by Lone Star Disc 2024-02-10 B Anahuac 10 976.3500 2,794 2 Fredy Meza 1034.0000 4.5690 530
The Huck 'Em Open 2024-02-10 B Jordan 26 969.7255 4,908 2 Charlie Moore 1018.5000 5.6870 654
Dynamic Discs Flex Start Friday @ Greenbelt #1 2024-02-09 C Carrollton 11 924.9091 88 1 Kyle McKinnon 997.0000 0.7083 34
Fuego Friday Flex Start @ Wilco - USWDGC Fundraiser Series #3 2024-02-09 C Leander 10 967.5000 200 1 Chris Harris 1020.0000 1.7292 83
Throwing Down the Gauntlet Silver at Dino Hills, Sponsored by MVP Disc Sports 2024-02-09 C Glen Rose 5 977.2000 105 1 Kade Capps 1048.0000 1.3750 66
Lone Star Disc Flex @ Northside Christian 2024-02-08 C Spring 3 971.0000 60 1 Charlie Moore 1027.0000 0.7917 38
10th Annual El Paso Ice Bowl (CEP Charity - Rated) 2024-02-04 XC El Paso 8 927.1739 1,992 3 PDGA #103762 961.0000 1.4093 272
Yeti's Battle Royale-Live Oak Edition 2024-02-04 C Live Oak 8 959.0000 500 1 Bonner Butler 1043.0000 0.9615 50
King of the Flex by Lucky Ace Discs 2024-02-04 C Spring 9 922.7778 207 1 Charlie Moore 1014.0000 1.6346 85
Throwing Down the Gauntlet at McDade, Sponsored by MVP Disc Sports 2024-02-03 C Conroe 10 942.6000 1,160 2 Ben Mueck 1005.5000 2.3333 238
Throwing Down the Gauntlet at Brazos Park East, (SILVER) Sponsored by MVP Disc Sports 2024-02-03 C Waco 8 951.6250 210 1 Jaden Rye 1022.0000 1.6071 90
Throwing Down the Gauntlet at Harry Myers, (SILVER) Sponsored by MVP Disc Sports 2024-02-03 C Rockwall 13 939.0000 275 1 Jonny Smith 1009.0000 1.7059 87
Throwing Down the Gauntlet at Harry Myers, (SILVER) Sponsored by MVP Disc Sports 2024-02-03 C Rockwall 13 939.0000 275 1 Elijah Brown 1009.0000 1.7059 87
Big country flex 2024-02-02 C Belton 4 965.5000 112 1 Jaden Rye 991.0000 1.1475 70
Dynamic Discs Flex Start Friday @ Jimmy Porter 2024-02-02 C Carrollton 5 963.2000 40 1 G.T. Hancock 991.0000 0.4000 20
Dynamic Discs Flex Start Friday @ Jimmy Porter 2024-02-02 C Carrollton 5 963.2000 40 1 PDGA #83143 991.0000 0.4000 20
Lone Star Disc Thursday Flex @ StoneBridge 2/1/24 2024-02-01 C The Woodlands 2 1006.0000 40 1 Charlie Moore 1038.0000 0.9524 40
Yeti's Battle Royale-San Antonio Edition 2024-01-28 C San Antonio 5 954.0000 280 1 PDGA #197487 1006.0000 1.4583 70
Lucky Ace Double Down Doubles 2024-01-28 XC Cypress 1 18 1 Marcus Stephens 0.4286 18
Griplocked Sunday Flex @ Audubon 1/28/2024 2024-01-28 C Garland 9 935.0000 134 1 PDGA #107953 967.0000 1.0385 54
Griplocked Sunday Flex @ Audubon 1/28/2024 2024-01-28 C Garland 9 935.0000 134 1 PDGA #140515 967.0000 1.0385 54
2024 Sugar Land Showdown - Presented by Lone Star Discs 2024-01-27 B Sugar Land 13 966.7692 2,100 2 Tanner Girouard 1015.5000 2.8443 347
1st Annual East Texas Winter Classic at BlackBerry Pines 2024-01-27 C Pittsburg 17 959.0294 1,632 2 Erik Rasmussen 1013.0000 1.9291 245
The Disc Barn Flex Powered by Hooligan Discs 2024-01-27 C Rockwall 5 909.7500 90 1 PDGA #143535 927.0000 0.8485 56
Big country flex 2024-01-27 C Temple 8 954.1250 224 1 Jaden Rye 1016.0000 1.6034 93
AC/DC Charity Triples to Benefit the USWDGC and E.D.G.E. 2024-01-27 XC San Antonio 1 160 2 Valerie Mandujano 0.8989 80
The Hideaway Open presented by Innova Discs and Deep Ellum Brewing Company 2024-01-21 B Terrell 30 978.1754 8,200 2 Mason Marchbanks 1031.0000 7.8740 1,000
Windy Winter Warmup 2024-01-21 C Snyder 4 938.7500 1,112 1 Albert Bravo 998.0000 13.6471 696
Hypernova Series #1 - Joshua Springs 2024-01-21 C Comfort 11 947.1818 418 1 Jay Yeti Reading 1030.0000 2.7963 151
King of the Flex by Lucky Ace Discs 2024-01-21 C Tomball 3 994.0000 69 1 Marcus Stephens 1004.0000 0.8600 43
Simply Discs' Sanctioned Flex Series #1 @ Cameron Park West 2024-01-21 C Waco 5 953.4000 130 1 Andrew Savage 1036.0000 1.4211 81
Flex Start at Flying Armadillo 2024-01-20 C San Marcos 7 963.1429 175 1 Jay Yeti Reading 1005.0000 1.5962 83
Armory Disc Golf Flex at Lions Park 2024-01-20 C Temple 4 963.7500 88 1 Ryan May 985.0000 0.9180 56
Lone Star Disc Flex Thursday @ McDade 1/18/24 2024-01-18 C Conroe 1 1038.0000 20 1 Charlie Moore 1038.0000 0.4444 20
The Winter Blast Open at Turkey Ridge DGC 2024-01-14 B Seguin 6 974.5000 2,124 2 Charlie Moore 1020.5000 3.8769 504
The Legend of Boggy Creek- Flex 2024-01-14 C Lumberton 2 915.0000 0 1 PDGA #100339 974.0000 0.0000 0
King Of The Flex By Lucky Ace Discs 2024-01-14 C The Woodlands 1 982.0000 23 1 Marcus Stephens 982.0000 0.4600 23
Jackson Brothers Invitational presented by Lone Star Disc 2024-01-13 C new waverly 10 972.9500 810 2 PDGA #103224 1039.0000 1.6038 170
Dillo Dubs - Pro/Am - A Texas Am Series Qualifying Event 2024-01-13 XC San Marcos 1 200 2 Jordan Fietz 1.0417 100
The Polar Open at Bill Allen 2024-01-13 B The Colony 10 950.9500 3,300 2 Emerson Keith 1022.0000 6.7030 677
Chainwreck One Round challenge @ Vets stop1 2024-01-13 C Arlington 14 931.3571 352 1 Caleb “HukFace” Sanders 1013.0000 2.3529 120
Fuego Friday Flex Start @ Wells Branch - USWDGC Fundraiser Series #1 2024-01-12 C Pflugerville 11 918.1818 220 1 PDGA #20181 970.0000 1.7174 79
Polar Open Flex Start Friday on a Thursday 2024-01-11 C The Colony 3 895.0000 60 1 PDGA #131736 948.0000 0.6786 38
Lone Star Disc Thursday Flex @ Northside Christian 1/11/24 2024-01-11 C Spring 1 1032.0000 20 1 Charlie Moore 1032.0000 0.4167 20
Dynamic Discs Presents Straddle the Brazos - Dirty Dozen Tour Stop #1 2024-01-07 B Waco 40 979.7564 6,730 2 Jaden Rye 1035.5000 6.5789 750
2024 Mint Discs Team Tryout (Pro & AM Divisions) 2024-01-07 C Austin 34 950.2836 3,206 2 PDGA #213243 1003.5000 3.5728 368
2024 Longview Challenge 2024-01-06 C Longview 11 949.9545 1,276 2 Erik Rasmussen 1004.5000 2.3958 230
Winter Flex Start at The Woods Trinity 2024-01-06 C McKinney 10 951.1000 200 1 Bucky Garrett 1036.0000 1.6735 82
Mint Discs Flex Start @ Sprinkle Valley Disc Golf Course 2024-01-03 C Austin 3 995.0000 69 1 Chris Harris 1051.0000 0.7963 43
Hair of the Dog at Turkey Ridge 2024-01-01 C Seguin 10 941.0000 280 1 Aaron Collins 988.0000 1.6197 115
New Year New Rating 2024-01-01 C Tomball 1 986.0000 25 1 Dynas Doud 986.0000 0.5000 25
Simply Discs' Sanctioned Flex C-Tier @ Woodway 2023-12-31 C Waco 1 908.0000 26 1 Andrew Savage 908.0000 0.4727 26
Jackson Bros X Lucky Ace NYE Bash 2023-12-31 XC New Waverly 1 984.0000 49 1 Fredy Meza 984.0000 1.1136 49
New Years Eve Flex @ Audubon 12/31/2023 2023-12-31 C Garland 10 950.0000 179 1 Isaac Marrs 987.0000 1.4898 73
IDEAL--End of the Year Ideal Flex Start 2023-12-30 C haltom city 17 940.5294 532 1 Alan Morrison 1011.0000 3.3404 157
2023 Fuego Friday Finale sponsored by Mint Discs 12/29/23 2023-12-29 C Del Valle 15 889.5333 276 1 Ian Fredrickson 991.0000 2.2128 104
Lone Star Disc Flex Thursday @ Jones Creek 2023-12-28 C Richmond 2 992.0000 40 1 Charlie Moore 1016.0000 0.8889 40
Flex the Halls at Nani: Christmas Eve Day 2023-12-24 C San Antonio 3 893.0000 45 1 0.0000 0
Dynamic Discs Flex Start Friday @ Greenbelt HO HO HO 2023-12-22 C Carrollton 9 945.0000 72 1 Alan Morrison 981.0000 0.7292 35
Lone Star Disc Flex Thursday @ McDade 2023-12-21 C Conroe 2 969.5000 40 1 Fredy Meza 1012.0000 0.8333 40
Flex the Halls at the Ridge #2 2023-12-17 C Seguin 8 954.1429 144 1 Aaron Collins 996.0000 0.9538 62
The Northside Open presented by Lone Star Disc 2023-12-17 B Spring 14 970.4000 2,134 2 Henry Bente 1022.0000 3.9636 436
Tumbleweed Series Championship 2023-12-16 C Spring 1 947.0000 0 1 PDGA #120478 947.0000 0.0000 0
The Christmas Crush 2023-12-16 C Amarillo 15 930.4483 1,290 2 Noah Baker 1026.5000 2.1400 214
The First Flex at Park Hudson 2023-12-16 C Bryan 7 967.0000 161 1 PDGA #176233 1001.0000 1.2833 77
Chainwreck Holiday flex at Vets IV 2023-12-16 C Arlington 15 937.7333 171 1 PDGA #165881 991.0000 0.0000 0
Inner Peace Open 2023-12-16 C Spicewood 10 960.3000 900 2 Joshua Ianno 991.0000 1.7885 186
Lone Star Disc Flex @ Northside Christian 2023-12-14 C Spring 2 1048.0000 0 1 Ricky Ovaitt 1048.0000 0.0000 0
Big country beef jerky flex #31 2023-12-14 C Temple 7 956.1429 196 1 PDGA #220889 1019.0000 1.7547 93
2023 HOTT Finals 2023-12-10 B Jordan 16 991.5208 8,085 3 Mason Ford 1026.0000 4.6763 809
Lucky Ace Discs Flexin' at The Ridge 2023-12-10 C Seguin 3 975.6667 54 1 Aaron Collins 1000.0000 0.4857 34
Griplocked Sunday Flex @ Audubon 12/10/2023 2023-12-10 C Garland 4 922.2500 72 1 PDGA #107953 998.0000 0.9184 45
Big Flicks Live Oak Brewery Flex 5 2023-12-10 C Del Valle 3 902.0000 33 1 Jay Yeti Reading 992.0000 0.7500 33
The 956 Open 2023-12-10 B McAllen 4 944.0000 1,510 2 PDGA #94704 960.0000 3.7698 475
Lucky Ace Nani Flex (12/9) 2023-12-09 C San Antonio 3 900.0000 72 1 PDGA #191318 968.0000 0.8036 45
Dynamic Discs Flex Start Friday @ Jimmy Porter 2023-12-08 C Carrollton 9 944.0000 72 1 Alan Morrison 1017.0000 0.7083 34
Big Flicks Zube Friday Flex 21 2023-12-08 C Hockley 1 840.0000 17 1 PDGA #227500 840.0000 0.2982 17
Lone Star Disc Thursday Flex @ StoneBridge 2023-12-07 C The Woodlands 1 989.0000 20 1 Fredy Meza 989.0000 0.4348 20
The Victoria Invitational - Sponsored by LoneStar, hosted by Gorilla & OneStar Disc Golf 2023-12-03 B Victoria 8 980.6087 4,050 3 Chris Macias 1025.3333 3.8276 555
The Southern Star Duo Sponsored By Lone Star Disc 2023-12-03 B Conroe 8 979.2500 2,350 2 Fredy Meza 1019.0000 5.0000 485
2023 Waxahachie Open Presented By Innova 2023-12-02 B Waxahachie 14 973.1786 3,658 2 Emerson Keith 1017.0000 5.6449 604
Warmup Before Dark Flex Start 2023-12-02 C The Woodlands 1 1000.0000 25 1 Dynas Doud 1000.0000 0.5556 25
Saddle Up at Guthrie Creek Park DGC 2023-12-02 C Longview 4 944.0000 440 2 Erik Rasmussen 1004.5000 1.4681 138
Rivery Rumble - Sponsored by Big Country Beef Jerky 2023-12-02 C Georgetown 1 941.0000 84 2 PDGA #44644 941.0000 0.4078 42
Lucky Ace Hill Country Flex (12/2) 2023-12-02 C San Antonio 3 968.3333 54 1 Austin North 984.0000 0.6182 34
2023 MetCenter Flex #3 - Presented by 1010 Discs 2023-12-02 C Austin 7 942.8571 224 1 Andrew Lowrie 970.0000 1.6364 108
2023 East Texas Cup Sponsored by Dynamic Discs 2023-12-02 C Beaumont 3 991.0000 120 2 Seth Windham 1014.0000 0.0000 0
Flex Start at Rivery 2023-12-01 C Georgetown 3 927.0000 90 1 PDGA #213243 1007.0000 1.9149 90
Big country beef jerky flex #30 2023-12-01 C Killeen 3 946.6667 84 1 Peyton Mansell 973.0000 0.8983 53
Flex Start at Steeplechase 2 2023-11-26 C Kyle 1 914.0000 30 1 Andrew Rosta 914.0000 0.4412 30
Double Down Doubles with Lucky Ace 2023-11-26 XC Spring 1 998.0000 42 1 Fredy Meza 998.0000 0.9333 42
Armory Disc Golf Turkey Flex 2023 2023-11-25 C Conroe 7 952.1429 182 1 PDGA #131194 1017.0000 1.8125 87
Yeti Battle Royale-Wimberley Edition 2023-11-25 C Wimberley 2 1001.5000 550 1 Jay Yeti Reading 1013.0000 7.4468 350
Throwing the W (Tonys Discs) 2023-11-25 C Weatherford 12 947.4167 1,632 2 PDGA #148126 1002.5000 2.8544 294
Bring your BFF's to The BFF presented by Lone Star Disc 2023-11-24 C Conroe 1 981.0000 20 1 PDGA #78306 981.0000 0.3922 20
Fuego Friday Flex Start sponsored by Mint Discs 11/24/23 2023-11-24 C Bastrop 5 935.4000 105 1 Ian Fredrickson 990.0000 1.5000 66
Dynamic Discs Black Friday Flex Start Friday 2023-11-24 C Carrollton 18 954.3889 124 1 PDGA #44313 1041.0000 1.0455 46
Big Country beef jerky flex #29 2023-11-24 C Temple 6 947.0000 168 1 PDGA #237855 989.0000 1.3115 80
Big Flicks Zube Flex 19 2023-11-24 C Hockley 1 968.0000 17 1 Chris Macias 968.0000 0.3617 17
Big country beef jerky flex #28 2023-11-21 C Killeen 4 954.7500 112 1 Peyton Mansell 986.0000 1.1667 70
Texas Collegiate Championship-South Central Regional Qualifier (ALUMNI) Driven by INNOVA Champion and Powered by MINT Discs 2023-11-19 XC San Marcos 11 914.9091 0 2 Jaden Rye 1006.5000 0.0000 0
Dynamic Discs Presents the Trophy Club Open - Professional, Intermediate 2023-11-19 B Trophy Club 14 966.7778 2,938 2 Mason Marchbanks 1046.0000 5.2632 500
The Texas Hill Country Classic Presented By Lucky Ace 2023-11-19 B Helotes 10 974.2500 2,808 2 Alan Janzen 1023.5000 5.6019 577
Lone Star Disc Championship 2023-11-19 B Conroe 46 977.0225 19,950 2 Aidan Scott 1048.0000 28.0374 3,000
Simply Discs' Sanctioned Charity Flex Start @ Amsler Park Benefiting the McGregor Food Pantry (CEP Charity - Rated) 2023-11-19 XC McGregor 5 910.6000 84 1 Decius W. Tasby 944.0000 1.4737 84
G.O.A.T. Tour Finale 2023-11-19 B Ovalo 7 970.3571 1,556 2 Nicholas Rowton 1016.5000 3.1356 370
Griplocked Sunday Flex @ Audubon 11/19/2023 2023-11-19 C Garland 4 949.0000 96 1 PDGA #135583 962.0000 0.9057 48
Griplocked Sunday Flex @ Audubon 11/19/2023 2023-11-19 C Garland 4 949.0000 96 1 PDGA #140247 962.0000 0.9057 48
Third Coast Memorial supported by Innova 2023-11-19 B Ingleside 6 947.5294 1,725 3 PDGA #94704 981.6667 1.6272 275
The Slaughter Showdown (A HOTT Points Event) 2023-11-19 B Austin 20 950.3220 6,102 3 Thomas Perks 989.0000 3.5185 570
3rd Annual I-30 Throwdown 2023-11-18 C Texarkana 12 929.7500 1,272 2 Erik Rasmussen 993.0000 2.3958 230
Big Flicks McClain Flex 9 2023-11-18 C San Antonio 3 935.3333 51 1 Aaron Collins 994.0000 0.6531 32
Black Zombie Presents: The Texas Chainsaw Massacre 2023-11-18 C Odessa 11 943.7273 2,360 2 Andrew Dover 997.0000 4.1176 420
Dynamic Discs Flex Start Friday @ Trophy Club 2023-11-17 C Trophy Club 10 941.6000 150 1 Isaac Marrs 992.0000 1.1765 60
Big Flicks Zube Flex 18 2023-11-17 C Hockley 1 912.0000 17 1 PDGA #112354 912.0000 0.3542 17
Lone Star Disc presents McDade 11/16/23 2023-11-16 C Conroe 1 954.0000 20 1 Garrett Saunders 954.0000 0.3704 20
Armory Disc Golf presents BTHO Bogeys: A Texas A&M Disc Golf Fundraiser 2023-11-12 C College Station 10 944.4500 1,160 2 Ben Mueck 1008.5000 2.4536 238
Griplocked Sunday Flex @ Audubon 11/12/2023 2023-11-12 C Garland 3 957.6667 54 1 PDGA #107953 1000.0000 0.7234 34
Power Disc Golf Academy Invitational 2023-11-12 C Austin 8 945.0000 1,170 2 Blake Whitehead 1022.5000 2.3644 279
Spins Disc Golf League 2023-11-11 L Amarillo 8 934.5556 0 6 PDGA #264896 954.6667 0
Jurassic Weekend III (Pterodactyl Ridge) @ Dino Hills 2023-11-11 C walnut springs 3 909.3333 69 1 PDGA #46238 920.0000 0.6714 47
Veteran’s Day Open 2023-11-11 C Weslaco 2 906.0000 192 2 PDGA #118522 920.5000 0.8889 96
T.A.C.O. The Alamo City Open 2023-11-11 C San Antonio 7 953.2143 630 2 Jay Yeti Reading 1024.0000 1.5152 150
"The 11th Hour" a remembrance event at Coleto Creek. powered by INNOVA 2023-11-11 C Victoria 5 968.3750 800 2 PDGA #137047 982.0000 2.1368 250
Chain Bombers presents The Alex Clark Memorial Support by Innova 2023-11-11 B McKinney 13 955.1538 3,162 2 Emerson Keith 1010.5000 5.3367 523
Tight House Disc Golf Flex @ Alex Clark 2 2023-11-10 C McKinney 5 954.4000 100 1 PDGA #178411 1007.0000 1.3125 63
Dynamic Discs Flex Start Friday @ Heritage Park 2023-11-10 C Flower Mound 12 950.9167 180 1 Kade Capps 1023.0000 1.5000 75
Lone Star Disc presents Northside Christian 11/9/23 2023-11-09 C Spring 1 999.0000 20 1 Kyle Serres 999.0000 0.3922 20
Big country flex #27 2023-11-09 C Belton 4 954.5000 112 1 PDGA #220889 981.0000 1.1475 70
2nd Annual Autumn Classic 2023-11-05 C McAllen 6 923.0000 422 2 PDGA #94704 967.5000 0.8696 100
KR8om presents 33rd Veterans Park Open powered by MINT discs (PRO weekend) 2023-11-05 A Arlington 62 967.0054 41,892 3 Mason Marchbanks 1026.0000 12.3548 1,915
Big Flicks Live Oak Brewery Flex 1 2023-11-05 C Del Valle 4 940.0000 68 1 PDGA #110344 954.0000 0.9565 44
Big Flicks Zube Flex 8 Supported by Innova 2023-11-04 C San Antonio 2 967.0000 34 1 Aaron Collins 967.0000 0.3269 17
Big Flicks Zube Flex 8 Supported by Innova 2023-11-04 C San Antonio 2 967.0000 34 1 Austin North 967.0000 0.3269 17
Flex Start at Mae Simmons DGC Presented by Birdie Productions #19 2023-11-04 C Lubbock 14 918.2143 364 1 Marcus Roberts 991.0000 2.5200 126
Big Flicks Zube Flex 17 2023-11-03 C Hockley 3 931.3333 51 1 Chris Macias 1030.0000 0.8000 32
Lone Star Disc presents Stonebridge 11 / 2 / 2023 2023-11-02 C The Woodlands 1 877.0000 20 1 PDGA #227500 877.0000 0.3571 20
Gorilla Southside Wednesdays League - 2023 Finale 2023-11-01 L Alvin 5 900.7500 0 6 PDGA #137047 956.2000 0
Temple fall League 2023-10-31 L Temple 10 952.8400 0 5 Jaden Rye 1004.0000 0
Simply Discs' Sanctioned Flex Start "Fear the Fairway" @ Cameron Park West 2023-10-29 C Waco 4 923.7500 140 1 PDGA #110344 973.0000 1.3538 88
Lone Star Discs presents - Greater Houston Disc Golf Championship 2023 2023-10-29 B Houston 24 975.2292 5,488 2 Seth Talbott 1036.0000 6.5000 767
Throwdown Showdown V sponsored by Michelob Ultra. 2023-10-29 B Austin 10 979.5500 2,900 2 Sam DiCarlo 1027.0000 4.6124 595
Spooky Dubz at The Zip 2023-10-28 XC Helotes 1 35 1 PDGA #103964 0.7292 35
Calavera Open 2023-10-28 B Terrell 5 918.3000 1,770 2 Fredy Meza 1024.5000 7.2541 885
LowPutt Disc Golf Presents The 12th Annual Oilfield Blowout Presented By Innova 2023-10-28 B Midland 19 957.4211 3,528 2 Nicholas Rowton 1011.5000 4.8529 495
Big Flicks Zube Flex 16 supported by Innova 2023-10-27 C Hockley 1 805.0000 17 1 PDGA #227500 805.0000 0.2931 17
Big country beef jerky flex #26 2023-10-26 C Temple 6 960.1667 168 1 Peyton Mansell 1004.0000 1.5686 80
Lone Star Disc Flex Thursday @ Johns Creek Ranch 10/26/23 2023-10-26 C Conroe 1 944.0000 20 1 George Maltsiniotis 944.0000 0.3922 20
Discraft's 31st Annual Lubbock Windriders Big Arms on the Brazos Presented by Ledgestone 2023-10-22 B Lubbock 23 964.2941 8,823 3 Mason Marchbanks 1027.3333 4.7239 770
Armory Disc Golf Presents: 2023 Throwing Down The Gauntlet Championship 2023-10-22 XB College Station 7 969.5714 3,076 2 PDGA #213243 1006.5000 7.6146 731
46th Annual Waterloo Disc Golf Classic (CEP Charity - Rated) 2023-10-22 C Austin 7 948.5263 903 3 Ian Fredrickson 983.6667 1.0070 143
Island Invasion 2023-10-21 C Port Arthur 3 994.1667 130 2 Seth Windham 1022.0000 0.0000 0
3rd Annual Commerce Pride Open Sponsored by Dynamic Discs 2023-10-21 B Commerce 11 941.6818 2,810 2 Zane Letts 1003.0000 4.9608 506
MSU's Flexing Around the Falls @ Lake Wichita Sponsored by Dynamic Discs 2023-10-21 C Wichita Falls 6 892.6667 35 1 Gage Gilstad 959.0000 0.0000 0
2nd Annual Love In Action Charity Disc Golf Tournament 2023-10-21 C Athens 6 950.0833 816 2 Christopher Farnham 998.5000 2.0208 194
Friday Flex 2023-10-20 C College Station 6 961.0000 88 1 PDGA #213243 987.0000 1.2245 60
Big Country flex #25 2023-10-20 C Temple 6 949.3333 168 1 Ryan May 966.0000 1.2903 80
Griplocked Friday Flex @ Audubon 10/20/2023 2023-10-20 C Garland 2 988.5000 36 1 PDGA #107953 1000.0000 0.7660 36
Dynamic Discs Flex Start Friday @ Harry Myers 2023-10-20 C Rockwall 7 937.0000 105 1 Tyler Swanson 982.0000 0.9259 50
Lone Star Disc Flex Thursday @ McDade 10/19/23 2023-10-19 C Conroe 1 828.0000 20 1 PDGA #227500 828.0000 0.2985 20
Fuego Wednesday Flex Start sponsored by Mint Discs 10/18/23 2023-10-18 C Del Valle 4 900.2500 72 1 PDGA #67201 973.0000 0.9783 45
Dynamic Discs Presents the Carrollton Classic - The 2023 Dirty Dozen Tour Finale 2023-10-15 B Carrollton 13 964.9211 7,230 3 Zachary Nash 1019.0000 6.8966 1,000
The Disc Barn Flex Powered By Hooligan Discs 2023-10-15 C Rockwall 4 901.0000 72 1 PDGA #181930 954.0000 0.7627 45
The West Guth Challenge by ONESTAR 2023-10-15 B Corpus Christi 7 942.5714 1,788 2 PDGA #86177 978.0000 3.7069 430
The First Annual Stonebridge Smackdown 2023-10-14 C The woodlands 6 895.0000 53 1 PDGA #78306 1011.0000 0.8542 41
Jack Brooks Open - Supported by Innova 2023-10-14 B Hitchcock 6 967.4167 1,308 2 PDGA #137047 989.0000 2.8796 311
1st Annual Ace Race Flex Start at Mackenzie DGC Presented by Birdie Productions #18 2023-10-14 C Lubbock 11 842.5455 286 1 JJ Guzman 1009.0000 2.4524 103
Lil Rodeo Flex 10 @ Lone Star HQ 2023-10-14 C Conroe 1 820.0000 20 1 PDGA #227500 820.0000 0.3125 20
Big Flicks McClain Flex 7 2023-10-14 C San Antonio 4 962.7500 68 1 Aaron Collins 982.0000 0.8600 43
Big Country Crossroads T.O.S.S. 2023-10-14 C Temple 12 954.3182 1,272 2 Jaden Rye 998.5000 2.0446 229
Flex Start at Benbrook 2023-10-14 C Leander 3 949.6667 90 1 PDGA #67201 971.0000 0.7759 45
Flex Start at Benbrook 2023-10-14 C Leander 3 949.6667 90 1 PDGA #91092 971.0000 0.7759 45
Dynamic Discs Flex Start Friday @ Greenbelt DGC 2023-10-13 C Carrollton 13 950.0833 194 1 PDGA #148126 1011.0000 1.0612 52
Dynamic Discs Flex Start Friday @ Greenbelt DGC 2023-10-13 C Carrollton 13 950.0833 194 1 Mickey Welsh 1011.0000 1.0612 52
Griplocked Friday Flex @ Audubon 10/13/2023 2023-10-13 C Garland 4 917.5000 72 1 PDGA #107953 955.0000 0.8491 45
Big country Flex #24 (Toss Warmup) 2023-10-13 C Belton 9 952.5556 252 1 PDGA #110344 1005.0000 1.8246 104
Lone Star Disc Flex @ Northside Christian 10/12/23 2023-10-12 C Spring 1 1024.0000 20 1 Fredy Meza 1024.0000 0.4255 20
Key City DG Fall League 2023-10-10 L Abilene 10 925.8000 0 6 Christopher Weatherman 947.0000 0
ATX Open 2023-10-08 B Austin 29 965.4138 8,000 2 PDGA #51471 1024.0000 8.5586 950
King of Saddle Hills IV hosted by Ideal Discs 2023-10-08 C White Settlement 8 976.0000 342 1 PDGA #57837 1003.0000 2.2000 99
King of Saddle Hills IV hosted by Ideal Discs 2023-10-08 C White Settlement 8 976.0000 342 1 Colby Edwards 1003.0000 2.2000 99
King of Saddle Hills IV hosted by Ideal Discs 2023-10-08 C White Settlement 8 976.0000 342 1 PDGA #170212 1003.0000 2.2000 99
Griplocked Sunday Flex @ Audubon 10/8/2023 2023-10-08 C Garland 5 912.0000 90 1 PDGA #107953 979.0000 1.1200 56
West Texas Disc Golf Champions Tournament Supported By Innova 2023-10-08 B Big Spring 18 951.0000 8,001 3 Charlie Moore 1030.6667 4.6981 747
Grand Opening at Old Orchard Park Presented by: Armory Disc Golf and Pineywoods Disc Golf Club 2023-10-07 C Diboll 5 939.6000 590 2 Matthew Hall 1040.0000 2.1395 184
Big Flicks McClain Flex 6 Supported by Innova 2023-10-07 C San Antonio 4 938.5000 68 1 Aaron Collins 975.0000 0.8269 43
Monahan Ranch Open 2023-10-07 C San Antonio 7 962.4286 924 2 PDGA #103964 1002.0000 2.1683 219
2nd Annual Bill West Memorial 2023-10-07 C Jefferson 7 960.0000 614 2 Erik Rasmussen 1020.0000 1.8454 179
Lil Rodeo Flex 9 @ Lone Star HQ 2023-10-07 C Conroe 1 866.0000 20 1 PDGA #227500 866.0000 0.3333 20
Hooligan Discs Flex Start @ Hideaway DGR 2023-10-07 C Terrell 1 936.0000 15 1 Ricky Meadows 936.0000 0.2308 15
Dynamic Discs Flex Start Friday @ Gateway DGC 2023-10-06 C Fort Worth 11 942.5455 130 1 PDGA #130637 1010.0000 1.4583 70
Fuego Friday Flex Start sponsored by Mint Discs 10/6/23 2023-10-06 C Austin 16 945.5000 335 1 Alan Janzen 988.0000 1.4576 86
Fuego Friday Flex Start sponsored by Mint Discs 10/6/23 2023-10-06 C Austin 16 945.5000 335 1 PDGA #213243 988.0000 1.4576 86
Big country beef jerky flex #23 2023-10-06 C Temple 10 959.0000 280 1 Jaden Rye 1029.0000 2.2745 116
Champions Warm Up Flex Start 2023-10-06 C Big Spring 10 913.8889 180 1 Kirk Trevena 970.0000 0.8491 45
Champions Warm Up Flex Start 2023-10-06 C Big Spring 10 913.8889 180 1 PDGA #47544 970.0000 0.8491 45
Champions Warm Up Flex Start 2023-10-06 C Big Spring 10 913.8889 180 1 PDGA #150196 970.0000 0.8491 45
Champions Warm Up Flex Start 2023-10-06 C Big Spring 10 913.8889 180 1 PDGA #156122 970.0000 0.8491 45
Lone Star Disc Thursday Flex @ StoneBridge 10/5 2023-10-05 C Conroe 1 1010.0000 20 1 Fredy Meza 1010.0000 0.4651 20
2023 Southwest Handicap Mini Session 3 2023-10-04 L Missouri City 8 909.8286 0 10 PDGA #187709 971.1000 0
SV Flex Tuesday 2023 Session III 2023-10-03 L Spring 8 935.1667 0 10 Kirk Trevena 969.1111 0
Lucky Ace Wildflower Tour Fundraiser Flex 2023-10-01 C San Antonio 4 953.0000 52 1 Austin North 994.0000 0.6735 33
Simply Discs' Sanctioned Flex Start 2023-10-01 C Waco 4 959.2500 92 1 PDGA #213243 975.0000 0.9206 58
1010discs.com TexasTeam Flex-Start at Weatherford DGC 2023-10-01 C Weatherford 6 952.6667 156 1 Thoun Sien 1001.0000 1.5417 74
The 24th Oktoberfest (A HOTT Points Event) presented by Mint Discs 2023-10-01 B Austin 13 966.8378 4,977 3 PDGA #37274 1001.6667 3.1977 550
Dynamic Discs and the Rose City Disc Club Presents the 20th Annual Piney Woods Open 2023-10-01 A Tyler 79 964.7217 51,171 3 Miles Seaborn 1035.3333 18.7500 3,000
Mesquite Challenge 2023-09-30 C Harlingen 1 909.0000 66 1 PDGA #118522 909.0000 1.2000 66
Piney Woods Open One Round Challenge @ The ROC #3 Presented by Lucky Ace Discs 2023-09-30 C Tyler 8 955.7500 130 1 Nolan Grider 1027.0000 1.2791 55
1010discs.com TexasTeam Flex-Start at Zboaz 2023-09-30 C Benbrook 16 941.3125 430 1 Thoun Sien 992.0000 2.0370 110
1010discs.com TexasTeam Flex-Start at Zboaz 2023-09-30 C Benbrook 16 941.3125 430 1 PDGA #130637 992.0000 2.0370 110
Flex Start at Mae Simmons DGC Presented by Birdie Productions #17 2023-09-30 C Lubbock 8 933.8750 208 1 PDGA #150196 992.0000 1.6346 85
Lil Rodeo Flex 8 @ Lone Star HQ 2023-09-30 C Conroe 2 924.5000 0 1 PDGA #23455 953.0000 0.0000 0
Bryan McClain Open 2023-09-30 B San Antonio 7 974.0714 1,636 2 Brian Dudney 1025.0000 4.0625 390
Fuego Friday Flex Start sponsored by Mint Discs 9/29/23 2023-09-29 C Red Rock 4 954.2500 84 1 PDGA #37274 1020.0000 0.9138 53
Piney Woods Open One Round Challenge @ The ROC #2 Presented By Luck Ace Discs 2023-09-29 C Tyler 4 988.2500 60 1 Alan Janzen 1034.0000 0.9302 40
Piney Woods Open One Round Challenge @ The ROC #1 Presented by Big Country Beef Jerky 2023-09-28 C Tyler 6 954.0000 90 1 Jimmy Martinez 1006.0000 1.1364 50
Tour of San Angelo Summer II 2023-09-26 L San angelo 5 962.4737 0 8 Nicholas Rowton 1008.2500 0
Tour of San Angelo Summer II 2023-09-26 L San angelo 5 962.4737 0 8 PDGA #36573 962.1429 0
Big Country Beef Jerky Working man flex 2023-09-25 C Temple 6 959.1667 78 1 Jaden Rye 1027.0000 0.7400 37
Flex Start at Wilco 4 2023-09-24 C Leander 9 952.0000 270 1 PDGA #213243 1002.0000 2.1132 112
Flex Start at Starcke 2023-09-24 C Seguin 2 938.5000 60 1 Andrew Rosta 967.0000 1.2000 60
Chain Bombers presents The Level Disc Golf McKinney Classic supported by Innova 2023-09-24 B McKinney 26 963.4231 13,005 3 Emerson Keith 1026.6667 7.2185 1,090
The Riverside Rumble by ONESTAR Disc Golf 2023-09-24 B Victoria 10 976.0000 3,555 3 Sam DiCarlo 1011.6667 3.0247 490
Lil Rodeo Flex 7 @ Lone Star HQ 2023-09-23 C Conroe 1 787.0000 20 1 PDGA #227500 787.0000 0.3077 20
Flex Start at Big Mac DGC Presented by Birdie Productions #16 2023-09-23 C Lubbock 6 938.3333 156 1 PDGA #150196 962.0000 0.8841 61
Flex Start at Big Mac DGC Presented by Birdie Productions #16 2023-09-23 C Lubbock 6 938.3333 156 1 PDGA #237855 962.0000 0.8841 61
Big Flicks McClain Flex 5 2023-09-23 C San Antonio 3 928.3333 51 1 Aaron Collins 957.0000 0.6038 32
2023 Wilco Flex #2 - Presented by 1010 Discs 2023-09-23 C Leander 4 971.7500 128 1 PDGA #67201 1018.0000 1.5385 80
Dynamic Discs Flex Start Friday @ Jimmy Porter 2023-09-22 C Carrollton 8 943.8571 121 1 PDGA #44313 1013.0000 1.0417 50
McKinney Classic Flex Start Friday at The Woods at Trinity presented by The Disc Golf Dojo 2023-09-22 C McKinney 10 928.8000 200 1 PDGA #148126 1009.0000 1.4138 82
Tight House Flex Town Lake 2023-09-22 C McKinney 2 948.0000 40 1 Ryan May 977.0000 0.7407 40
Tight House Flex @ Alex Clark 2023-09-22 C McKinney 7 950.5714 140 1 Justin Jones 982.0000 1.1000 55
Tight House Flex @ Alex Clark 2023-09-22 C McKinney 7 950.5714 140 1 Mickey Welsh 982.0000 1.1000 55
Lone Star Disc Thursday Flex at McDade 9/21/23 2023-09-21 C Conroe 4 907.2500 80 1 Fredy Meza 1028.0000 1.0638 50
Big country beef jerky flex #21 2023-09-21 C Belton 6 957.0000 168 1 PDGA #139567 982.0000 1.3793 80
Temple League night 2023-09-19 L Temple 11 946.0667 0 9 PDGA #259544 950.2222 0
Riverside Rumble Warm Up FLEX #3 of 3 by ONESTAR 2023-09-17 C Victoria 5 945.0000 102 1 PDGA #86177 985.0000 1.2500 65
Big Country Will Hair TOSS 2023-09-17 C Abilene 6 917.6667 636 2 Michael Kaufman 963.0000 1.4950 151
Circle G (A HOTT Points Event) 2023-09-17 B Austin 32 968.2131 6,080 2 Chris Harris 1028.5000 6.4364 708
Lil Rodeo Flex 6 @ Lone Star HQ 2023-09-16 C Conroe 1 883.0000 20 1 PDGA #227500 883.0000 0.3390 20
Fall Flex Start at Bill Allen presented by The Disc Golf Dojo 2023-09-16 C The Colony 5 913.0000 100 1 PDGA #178411 938.0000 1.1887 63
Central Houston Fall Classic - Supported by Innova - A Gorilla Disc Golf Event 2023-09-16 C Houston 10 958.2632 726 2 Kevin Worthy 1030.0000 2.0404 202
True North Texas Open 2023-09-16 C Spearman 4 923.7500 549 3 PDGA #142636 936.6667 1.1582 183
Fuego Friday Flex Start sponsored by Mint Discs 9/15/23 2023-09-15 C Leander 4 948.0000 84 1 Chris Harris 992.0000 0.9815 53
Big country beef jerky flex #20 2023-09-15 C Temple 11 954.4545 269 1 PDGA #259544 1021.0000 2.2653 111
Dynamic Discs Flex Start Friday @ Turner Park 2023-09-15 C Grand Prairie 16 929.8125 236 1 PDGA #44313 1034.0000 1.5000 75
956 lions showdown 2023-09-14 C San Juan 4 917.5000 26 1 PDGA #211254 946.0000 0.4082 20
Flex Start at Mackenzie DGC Presented by Birdie Productions #15 2023-09-10 C Lubbock 6 950.3333 156 1 PDGA #237855 972.0000 1.3214 74
The 3rd Ever Rumble at the Ranch (A HOTT Points Event) Presented by Mint Discs 2023-09-10 B Waelder 19 974.7838 4,174 2 Sam DiCarlo 1021.0000 4.5349 585
Dynamic Discs Presents the Lewisville Open in Memory of Tom "Old Man" McCutcheon 2023-09-10 B Lewisville 20 973.8947 5,076 3 Zachary Nash 1026.0000 4.3972 620
The Oak Meadow Open in Autumn presented by Innova 2023-09-10 C Cypress 3 962.0000 670 2 Charlie Moore 1000.5000 1.5580 215
UNITED WE DISC 2023-09-09 C Ingleside 12 932.2609 1,152 2 PDGA #50614 957.0000 1.8220 215
Big Flicks McClain Flex 4 2023-09-09 C San Antonio 3 912.6667 51 1 Bryan Landis 945.0000 0.5614 32
Ennis Open at the Spillway - Presented by Armory Disc Golf and Blackland Building Supply 2023-09-09 C Ennis 7 937.1429 968 2 Matt Sellers 986.0000 3.1942 329
Circle G Warm-Up Roy G 2023-09-09 C AUSTIN 10 952.3000 300 1 PDGA #51471 975.0000 1.6393 100
Circle G Warm-Up Roy G 2023-09-09 C AUSTIN 10 952.3000 300 1 Ryan May 975.0000 1.6393 100
12th Annual Guthrie Creek Warm Up — Sponsored by Dynamic Discs 2023-09-09 C Longview 15 935.4000 1,740 2 Christopher Farnham 995.0000 3.0211 287
FlexShot Island Warm-Up 2023-09-09 C Pleasure Island 4 980.5000 25 1 Seth Windham 1038.0000 0.0000 0
Dynamic Discs Flex Start Friday @ Old Man 2023-09-08 C Lewisville 7 956.2857 38 1 PDGA #189237 1019.0000 0.0000 0
Big Flicks Zube Flex 9 2023-09-08 C Hockley 4 927.5000 68 1 PDGA #57394 999.0000 1.0000 43
Lone Star Disc Thursday Flex @ StoneBridge 9/7 2023-09-07 C The Woodlands 2 954.5000 40 1 PDGA #120478 967.0000 0.8333 40
Flying Festival Face-Off presented by DiscaHolics 2023-09-07 C Temple 7 960.4286 96 1 PDGA #143206 1033.0000 0.0000 0
Big country beef jerky flex #19 2023-09-06 C Temple 10 958.2000 280 1 Peyton Mansell 992.0000 1.9492 115
Flying Festival Frenzy presented by DiscaHolics 2023-09-05 C Temple 7 949.7143 182 1 Jaden Rye 996.0000 1.6538 86
Hub City Classic 2023 presented by DISConnect 2023-09-04 B Lubbock 14 947.3250 5,190 3 Noah Baker 1008.3333 3.4545 570
Fuego Labor Day Flex Start sponsored by Mint Discs 9/4/23 (Rumble At The Ranch Warmup) 2023-09-04 C Waelder 11 959.8182 231 1 Alan Janzen 1004.0000 1.2537 84
Fall Classic @ North Park hosted by Ideal Discs 2023-09-03 C haltom city 10 947.1333 1,160 2 Thoun Sien 986.5000 2.3077 240
Lost Pines DGC Flex Start 9/3/23 2023-09-03 C Smithville 4 958.0000 80 1 PDGA #239534 984.0000 1.0870 50
Turkey Ridge Flex 2023-09-03 C Seguin 8 940.5000 168 1 Austin North 983.0000 1.0615 69
Westside Flex sponsored by MVP 2023-09-03 C Marble Falls 1 979.0000 35 1 Nick Nelson 979.0000 0.6364 35
Armory Disc Golf TDTG Silver Tier Flex at Texas Army Trail 2023-09-02 C Cypress 8 953.8750 160 1 Marcus Stephens 997.0000 1.2222 66
Flex Start at Monahan Ranch 2023-09-02 C San Antonio 5 962.8000 50 1 PDGA #131904 1008.0000 0.5319 25
Flex Start at Monahan Ranch 2023-09-02 C San Antonio 5 962.8000 50 1 PDGA #173339 1008.0000 0.5319 25
Big country flex #18 2023-09-02 C Killeen 7 947.2857 196 1 PDGA #106702 997.0000 1.7885 93
Sanction Saturday @Westside Longs 2023-09-02 L Marble Falls 8 0 0 PDGA #200644 0
Sanction Saturday @Westside Longs 2023-09-02 L Marble Falls 8 0 0 0
Riverside Rumble Warm Up FLEX #2 of 3 by ONESTAR 2023-09-02 C Victoria 6 932.3333 100 1 PDGA #86177 989.0000 1.1321 60
The Lil Rodeo Flex 4 @ Lone Star HQ 2023-09-02 C Conroe 1 825.0000 20 1 PDGA #227500 825.0000 0.3125 20
The takeover @ Dixieland Park (Harlingen TX) 2023-09-02 C harlingen 6 909.6667 0 1 PDGA #94704 1012.0000 0.0000 0
Dynamic Discs Flex Start Friday @ Bill Allen 2023-09-01 C The Colony 13 941.6923 194 1 Kyle McKinnon 1030.0000 1.3043 60
Dynamic Discs Flex Start Friday @ Bill Allen 2023-09-01 C The Colony 13 941.6923 194 1 Kerry Pauley 1030.0000 1.3043 60
Big Flicks Zube Flex 8 2023-09-01 C Hockley 1 920.0000 17 1 PDGA #57394 920.0000 0.3469 17
Griplocked Friday Flex @ Audubon 9/1/2023 2023-09-01 C Garland 2 969.5000 31 1 Isaac Marrs 975.0000 0.6327 31
Monday Night Flights 5 2023-08-28 L Amarillo 6 912.1250 0 5 PDGA #142636 916.3333 0
Flex Start at Roy G 2 2023-08-27 C Austin 11 959.9091 330 1 PDGA #67201 993.0000 1.6949 100
Flex Start at Roy G 2 2023-08-27 C Austin 11 959.9091 330 1 PDGA #135009 993.0000 1.6949 100
The 3rd Ever Bat City Open (A HOTT Points Event) by Mint Discs 2023-08-27 C Del Valle 7 913.2857 352 2 Trevor Byars 990.5000 0.0000 0
Lone Star Disc's Summer Vacation 2023-08-27 B Lorena 23 964.7500 6,082 2 Fredy Meza 1021.0000 7.7549 791
2nd Annual Valhalla Open 2023-08-27 C Beaumont 3 960.8333 210 2 Kevin Worthy 1001.0000 0.9130 105
Battle at Granbury (Tonys Discs) 2023-08-27 B Granbury 20 943.0256 3,714 2 Zane Letts 981.0000 4.4530 521
Chainwreck Flex @ Vets from the Blues(shorts) II 2023-08-26 C Arlington 11 940.1818 240 1 PDGA #85560 1001.0000 1.8293 75
Chainwreck Flex @ Vets from the Blues(shorts) II 2023-08-26 C Arlington 11 940.1818 240 1 Caleb “HukFace” Sanders 1001.0000 1.8293 75
Duck Creek Open Powered by Raising Cane's 2023-08-26 B Garland 17 962.0294 3,880 2 Landon Knight 1017.5000 6.2366 580
Circle G Warm-Up Circle C 2023-08-26 C Austin 13 949.2308 390 1 Jeff Gothard 997.0000 2.2414 130
Big Flicks McClain Flex 3 2023-08-26 C San Antonio 3 942.3333 25 1 Scott Hougland 957.0000 0.0000 0
Big Flicks McClain Flex 3 2023-08-26 C San Antonio 3 942.3333 25 1 PDGA #173339 957.0000 0.4808 25
Elsa meltdown 2023-08-26 C Elsa 7 939.2857 84 1 PDGA #80674 965.0000 0.6667 40
Lucky Ace "Beat the Heat" at The Zip 2023-08-26 C Helotes 8 933.3750 324 1 PDGA #191318 969.0000 2.5472 135
Dynamic Discs Flex Start Friday @ ZBoaz 2023-08-25 C Benbrook 10 970.3000 150 1 PDGA #148126 1016.0000 1.0000 50
Dynamic Discs Flex Start Friday @ ZBoaz 2023-08-25 C Benbrook 10 970.3000 150 1 Kade Capps 1016.0000 1.0000 50
FLEX START Duck Creek Open @ Audubon Friday 8/25 2023-08-25 C Garland 5 948.0000 68 1 Mickey Welsh 1014.0000 0.9149 43
Big country beef jerky flex #17 2023-08-24 C Temple 9 957.3333 217 1 Jaden Rye 1063.0000 1.9434 103
Ideal Weekend III Sunday @ North Park 2023-08-20 C haltom city 15 949.7143 420 1 Thoun Sien 1017.0000 3.0435 140
Ideal Weekend III Sunday @ Arcadia Park 2023-08-20 C fort worth 6 960.5000 168 1 Thoun Sien 989.0000 1.6000 80
LowPutt Disc Golf Presents 9th Annual Comanche Springs Blowout 2023-08-20 C Fort Stockton 11 951.7097 3,423 3 Ross Bates 993.6667 2.1862 411
Kraken Chains Open 2023-08-20 B San Antonio 12 941.5909 2,660 2 PDGA #173339 1018.0000 4.9896 479
Ideal Weekend III Saturday @ North Park 2023-08-19 C haltom city 18 957.8333 532 1 PDGA #44313 1032.0000 3.4889 157
EAST TEXAS STOP #5 2023-08-19 C Gun Barrell 2 930.0000 140 2 PDGA #242222 981.0000 0.7292 70
Back to School Slam Presented by Birdie Productions 2023-08-19 C Lubbock 3 950.5000 440 2 PDGA #150196 999.0000 1.1810 137
Ideal Weekend III Saturday @ Gateway 2023-08-19 C fort worth 10 938.8000 280 1 Patrick McReynolds 1005.0000 2.4167 116
Riverside Rumble Warm Up FLEX #1of 3 by ONESTAR 2023-08-19 C Victoria 11 942.9091 230 1 PDGA #86177 1001.0000 1.9149 90
Bayou Bash 2023 2023-08-19 C Baytown 1 960.5000 88 2 Ryan Ridley 960.5000 0.4272 44
MSU Summer's End Flex @ River's Edge Sponsored by Dynamic Discs 2023-08-19 C Iowa Park 9 929.6667 76 1 PDGA #108974 997.0000 0.0000 0
Boomtown Open 2023-08-19 C Borger 8 940.9091 2,022 3 Andrew Dover 967.3333 1.8105 277
Dynamic Discs Flex Start Friday @ Heritage Park DGC 2023-08-18 C Flower Mound 19 955.2105 207 1 PDGA #189237 1040.0000 0.0000 0
Fuego Friday Flex Start sponsored by Mint Discs 8/18/23 2023-08-18 C Austin 14 974.5833 294 1 Tanner McCartney 1006.0000 1.7857 100
Big Country Beef Jerky Flex #16 2023-08-18 C Temple 10 945.1000 280 1 PDGA #220889 998.0000 2.2549 115
Griplocked Flex Friday @ Audubon 8/18 2023-08-18 C Garland 6 901.0000 82 1 Isaac Marrs 1003.0000 0.7959 39
Big Flicks Zube Flex 6 2023-08-18 C Hockley 2 888.0000 32 1 George Maltsiniotis 976.0000 0.7111 32
Lone Star Disc Flex Thursday @ McDade 8/17/23 2023-08-17 C Conroe 1 971.0000 20 1 Garrett Saunders 971.0000 0.3774 20
Lucky Ace Warmup Flex for the Kraken Chains Open at McClain 2023-08-17 C San Antonio 3 947.0000 84 1 Michael Hufschmid 947.0000 0.7925 42
Lucky Ace Warmup Flex for the Kraken Chains Open at McClain 2023-08-17 C San Antonio 3 947.0000 84 1 Austin North 947.0000 0.7925 42
6th Annual Swordstone Social Heated by Mint Discs 2023-08-13 C Spicewood 17 955.6875 1,496 2 Bonner Butler 1020.0000